sensor_id;sensor_type;location;lat;lon;timestamp;P1;durP1;ratioP1;P2;durP2;ratioP2
62990;SDS011;49084;48.204;16.202;2024-03-23T00:51:56;10.57;;;6.32;;
62990;SDS011;49084;48.204;16.202;2024-03-23T00:54:22;10.95;;;6.63;;
62990;SDS011;49084;48.204;16.202;2024-03-23T00:56:47;11.15;;;6.88;;
62990;SDS011;49084;48.204;16.202;2024-03-23T00:59:13;16.58;;;7.70;;
62990;SDS011;49084;48.204;16.202;2024-03-23T01:01:39;12.32;;;7.10;;
62990;SDS011;49084;48.204;16.202;2024-03-23T01:04:04;11.27;;;6.70;;
62990;SDS011;49084;48.204;16.202;2024-03-23T01:06:30;10.95;;;7.22;;
62990;SDS011;49084;48.204;16.202;2024-03-23T01:08:55;14.85;;;7.35;;
62990;SDS011;49084;48.204;16.202;2024-03-23T01:11:21;10.32;;;6.65;;
62990;SDS011;49084;48.204;16.202;2024-03-23T01:13:47;11.32;;;7.15;;
62990;SDS011;49084;48.204;16.202;2024-03-23T01:16:12;13.82;;;6.65;;
62990;SDS011;49084;48.204;16.202;2024-03-23T01:18:38;11.20;;;6.43;;
62990;SDS011;49084;48.204;16.202;2024-03-23T01:21:04;11.45;;;6.53;;
62990;SDS011;49084;48.204;16.202;2024-03-23T01:23:29;17.77;;;6.95;;
62990;SDS011;49084;48.204;16.202;2024-03-23T01:25:55;9.23;;;6.30;;
62990;SDS011;49084;48.204;16.202;2024-03-23T01:28:21;9.60;;;5.45;;
62990;SDS011;49084;48.204;16.202;2024-03-23T01:30:47;9.13;;;6.45;;
62990;SDS011;49084;48.204;16.202;2024-03-23T01:33:13;18.73;;;6.07;;
62990;SDS011;49084;48.204;16.202;2024-03-23T01:35:39;10.40;;;6.60;;
62990;SDS011;49084;48.204;16.202;2024-03-23T01:38:04;8.57;;;6.10;;
62990;SDS011;49084;48.204;16.202;2024-03-23T01:40:30;13.90;;;6.20;;
62990;SDS011;49084;48.204;16.202;2024-03-23T01:43:09;11.60;;;6.45;;
62990;SDS011;49084;48.204;16.202;2024-03-23T01:45:35;8.27;;;5.70;;
62990;SDS011;49084;48.204;16.202;2024-03-23T01:48:01;10.10;;;6.05;;
62990;SDS011;49084;48.204;16.202;2024-03-23T01:50:28;12.88;;;6.47;;
62990;SDS011;49084;48.204;16.202;2024-03-23T01:52:55;8.80;;;5.65;;
62990;SDS011;49084;48.204;16.202;2024-03-23T01:55:22;9.38;;;5.45;;
62990;SDS011;49084;48.204;16.202;2024-03-23T01:57:48;10.25;;;6.20;;
62990;SDS011;49084;48.204;16.202;2024-03-23T02:00:14;8.48;;;5.68;;
62990;SDS011;49084;48.204;16.202;2024-03-23T02:05:11;10.18;;;5.82;;
62990;SDS011;49084;48.204;16.202;2024-03-23T02:07:38;9.23;;;6.20;;
62990;SDS011;49084;48.204;16.202;2024-03-23T02:10:08;12.70;;;5.55;;
62990;SDS011;49084;48.204;16.202;2024-03-23T02:12:35;10.27;;;6.13;;
62990;SDS011;49084;48.204;16.202;2024-03-23T02:15:01;7.70;;;6.22;;
62990;SDS011;49084;48.204;16.202;2024-03-23T02:17:27;14.85;;;5.97;;
62990;SDS011;49084;48.204;16.202;2024-03-23T02:19:54;11.55;;;5.72;;
62990;SDS011;49084;48.204;16.202;2024-03-23T02:22:19;11.18;;;5.82;;
62990;SDS011;49084;48.204;16.202;2024-03-23T02:24:45;13.70;;;6.03;;
62990;SDS011;49084;48.204;16.202;2024-03-23T02:27:11;9.82;;;5.72;;
62990;SDS011;49084;48.204;16.202;2024-03-23T02:29:36;10.32;;;5.97;;
62990;SDS011;49084;48.204;16.202;2024-03-23T02:32:02;12.75;;;6.05;;
62990;SDS011;49084;48.204;16.202;2024-03-23T02:34:28;13.18;;;5.93;;
62990;SDS011;49084;48.204;16.202;2024-03-23T02:36:53;9.95;;;5.53;;
62990;SDS011;49084;48.204;16.202;2024-03-23T02:39:19;12.20;;;6.07;;
62990;SDS011;49084;48.204;16.202;2024-03-23T02:41:44;13.52;;;6.00;;
62990;SDS011;49084;48.204;16.202;2024-03-23T02:44:10;11.20;;;5.60;;
62990;SDS011;49084;48.204;16.202;2024-03-23T02:46:39;10.35;;;6.53;;
62990;SDS011;49084;48.204;16.202;2024-03-23T02:49:04;8.18;;;5.68;;
62990;SDS011;49084;48.204;16.202;2024-03-23T02:51:30;11.07;;;6.32;;
62990;SDS011;49084;48.204;16.202;2024-03-23T02:53:56;13.95;;;6.28;;
62990;SDS011;49084;48.204;16.202;2024-03-23T02:56:22;10.38;;;5.60;;
62990;SDS011;49084;48.204;16.202;2024-03-23T02:58:47;12.57;;;6.03;;
62990;SDS011;49084;48.204;16.202;2024-03-23T03:01:13;8.35;;;6.03;;
62990;SDS011;49084;48.204;16.202;2024-03-23T03:03:39;9.52;;;5.90;;
62990;SDS011;49084;48.204;16.202;2024-03-23T03:06:04;7.85;;;5.57;;
62990;SDS011;49084;48.204;16.202;2024-03-23T03:08:30;8.07;;;5.88;;
62990;SDS011;49084;48.204;16.202;2024-03-23T03:10:56;7.90;;;6.05;;
62990;SDS011;49084;48.204;16.202;2024-03-23T03:13:21;8.77;;;5.63;;
62990;SDS011;49084;48.204;16.202;2024-03-23T03:15:47;7.97;;;6.03;;
62990;SDS011;49084;48.204;16.202;2024-03-23T03:18:12;8.02;;;6.05;;
62990;SDS011;49084;48.204;16.202;2024-03-23T03:20:39;8.43;;;5.40;;
62990;SDS011;49084;48.204;16.202;2024-03-23T03:23:05;8.52;;;5.45;;
62990;SDS011;49084;48.204;16.202;2024-03-23T03:25:31;9.85;;;5.80;;
62990;SDS011;49084;48.204;16.202;2024-03-23T03:27:57;8.23;;;5.68;;
62990;SDS011;49084;48.204;16.202;2024-03-23T03:30:22;14.40;;;6.00;;
62990;SDS011;49084;48.204;16.202;2024-03-23T03:32:49;9.05;;;6.25;;
62990;SDS011;49084;48.204;16.202;2024-03-23T03:35:15;11.05;;;5.75;;
62990;SDS011;49084;48.204;16.202;2024-03-23T03:37:40;10.77;;;5.90;;
62990;SDS011;49084;48.204;16.202;2024-03-23T03:40:06;10.02;;;6.05;;
62990;SDS011;49084;48.204;16.202;2024-03-23T03:42:34;10.90;;;6.03;;
62990;SDS011;49084;48.204;16.202;2024-03-23T03:45:00;9.60;;;5.63;;
62990;SDS011;49084;48.204;16.202;2024-03-23T03:47:25;8.90;;;5.53;;
62990;SDS011;49084;48.204;16.202;2024-03-23T03:49:51;8.20;;;5.60;;
62990;SDS011;49084;48.204;16.202;2024-03-23T03:52:17;12.43;;;5.28;;
62990;SDS011;49084;48.204;16.202;2024-03-23T03:54:42;9.18;;;5.65;;
62990;SDS011;49084;48.204;16.202;2024-03-23T03:57:08;7.30;;;5.05;;
62990;SDS011;49084;48.204;16.202;2024-03-23T03:59:33;9.05;;;5.50;;
62990;SDS011;49084;48.204;16.202;2024-03-23T04:01:59;11.25;;;5.60;;
62990;SDS011;49084;48.204;16.202;2024-03-23T04:04:25;8.60;;;5.00;;
62990;SDS011;49084;48.204;16.202;2024-03-23T04:06:57;8.43;;;5.70;;
62990;SDS011;49084;48.204;16.202;2024-03-23T04:09:26;10.70;;;5.38;;
62990;SDS011;49084;48.204;16.202;2024-03-23T04:11:52;7.47;;;6.10;;
62990;SDS011;49084;48.204;16.202;2024-03-23T04:14:18;8.82;;;5.32;;
62990;SDS011;49084;48.204;16.202;2024-03-23T04:16:44;7.13;;;5.40;;
62990;SDS011;49084;48.204;16.202;2024-03-23T04:19:09;7.78;;;5.95;;
62990;SDS011;49084;48.204;16.202;2024-03-23T04:21:35;10.18;;;5.78;;
62990;SDS011;49084;48.204;16.202;2024-03-23T04:24:02;7.55;;;5.30;;
62990;SDS011;49084;48.204;16.202;2024-03-23T04:26:29;7.18;;;5.50;;
62990;SDS011;49084;48.204;16.202;2024-03-23T04:28:55;12.23;;;5.57;;
62990;SDS011;49084;48.204;16.202;2024-03-23T04:31:21;10.25;;;5.50;;
62990;SDS011;49084;48.204;16.202;2024-03-23T04:33:46;11.18;;;6.32;;
62990;SDS011;49084;48.204;16.202;2024-03-23T04:36:12;10.38;;;5.57;;
62990;SDS011;49084;48.204;16.202;2024-03-23T04:38:38;9.52;;;6.50;;
62990;SDS011;49084;48.204;16.202;2024-03-23T04:41:04;12.98;;;5.60;;
62990;SDS011;49084;48.204;16.202;2024-03-23T04:43:29;10.88;;;6.10;;
62990;SDS011;49084;48.204;16.202;2024-03-23T04:45:55;7.55;;;6.05;;
62990;SDS011;49084;48.204;16.202;2024-03-23T04:48:21;10.30;;;6.30;;
62990;SDS011;49084;48.204;16.202;2024-03-23T04:50:47;12.10;;;6.00;;
62990;SDS011;49084;48.204;16.202;2024-03-23T04:53:31;8.30;;;5.20;;
62990;SDS011;49084;48.204;16.202;2024-03-23T04:55:56;12.63;;;5.28;;
62990;SDS011;49084;48.204;16.202;2024-03-23T04:58:24;7.68;;;5.25;;
62990;SDS011;49084;48.204;16.202;2024-03-23T05:00:54;9.13;;;5.47;;
62990;SDS011;49084;48.204;16.202;2024-03-23T05:03:20;10.77;;;5.63;;
62990;SDS011;49084;48.204;16.202;2024-03-23T05:05:46;12.35;;;5.45;;
62990;SDS011;49084;48.204;16.202;2024-03-23T05:08:13;7.30;;;5.47;;
62990;SDS011;49084;48.204;16.202;2024-03-23T05:10:38;11.02;;;5.20;;
62990;SDS011;49084;48.204;16.202;2024-03-23T05:13:04;8.85;;;5.75;;
62990;SDS011;49084;48.204;16.202;2024-03-23T05:15:30;5.10;;;4.57;;
62990;SDS011;49084;48.204;16.202;2024-03-23T05:17:55;10.23;;;5.35;;
62990;SDS011;49084;48.204;16.202;2024-03-23T05:20:21;6.82;;;5.25;;
62990;SDS011;49084;48.204;16.202;2024-03-23T05:22:46;8.15;;;5.30;;
62990;SDS011;49084;48.204;16.202;2024-03-23T05:25:12;10.68;;;5.70;;
62990;SDS011;49084;48.204;16.202;2024-03-23T05:27:38;15.65;;;5.53;;
62990;SDS011;49084;48.204;16.202;2024-03-23T05:30:04;7.60;;;5.15;;
62990;SDS011;49084;48.204;16.202;2024-03-23T05:32:31;9.93;;;4.53;;
62990;SDS011;49084;48.204;16.202;2024-03-23T05:34:56;6.93;;;5.32;;
62990;SDS011;49084;48.204;16.202;2024-03-23T05:37:22;7.88;;;5.13;;
62990;SDS011;49084;48.204;16.202;2024-03-23T05:39:48;7.50;;;4.97;;
62990;SDS011;49084;48.204;16.202;2024-03-23T05:42:15;9.48;;;5.65;;
62990;SDS011;49084;48.204;16.202;2024-03-23T05:44:42;13.27;;;6.10;;
62990;SDS011;49084;48.204;16.202;2024-03-23T05:47:11;7.13;;;5.55;;
62990;SDS011;49084;48.204;16.202;2024-03-23T05:49:39;10.60;;;5.25;;
62990;SDS011;49084;48.204;16.202;2024-03-23T05:52:07;6.28;;;5.30;;
62990;SDS011;49084;48.204;16.202;2024-03-23T05:57:01;7.45;;;5.03;;
62990;SDS011;49084;48.204;16.202;2024-03-23T05:59:27;9.38;;;5.63;;
62990;SDS011;49084;48.204;16.202;2024-03-23T06:01:53;8.52;;;4.68;;
62990;SDS011;49084;48.204;16.202;2024-03-23T06:04:19;8.20;;;5.60;;
62990;SDS011;49084;48.204;16.202;2024-03-23T06:06:46;5.32;;;4.50;;
62990;SDS011;49084;48.204;16.202;2024-03-23T06:09:11;8.32;;;4.97;;
62990;SDS011;49084;48.204;16.202;2024-03-23T06:11:37;10.27;;;4.55;;
62990;SDS011;49084;48.204;16.202;2024-03-23T06:14:03;7.65;;;4.72;;
62990;SDS011;49084;48.204;16.202;2024-03-23T06:16:29;7.95;;;4.82;;
62990;SDS011;49084;48.204;16.202;2024-03-23T06:18:55;11.05;;;4.97;;
62990;SDS011;49084;48.204;16.202;2024-03-23T06:21:21;6.72;;;4.47;;
62990;SDS011;49084;48.204;16.202;2024-03-23T06:23:51;6.88;;;4.40;;
62990;SDS011;49084;48.204;16.202;2024-03-23T06:26:20;8.73;;;4.45;;
62990;SDS011;49084;48.204;16.202;2024-03-23T06:28:46;7.05;;;4.60;;
62990;SDS011;49084;48.204;16.202;2024-03-23T06:31:12;8.15;;;4.43;;
62990;SDS011;49084;48.204;16.202;2024-03-23T06:33:38;6.32;;;4.55;;
62990;SDS011;49084;48.204;16.202;2024-03-23T06:36:05;7.47;;;4.72;;
62990;SDS011;49084;48.204;16.202;2024-03-23T06:38:31;6.05;;;4.40;;
62990;SDS011;49084;48.204;16.202;2024-03-23T06:40:57;8.48;;;4.95;;
62990;SDS011;49084;48.204;16.202;2024-03-23T06:43:23;14.73;;;5.32;;
62990;SDS011;49084;48.204;16.202;2024-03-23T06:45:52;7.80;;;4.68;;
62990;SDS011;49084;48.204;16.202;2024-03-23T06:48:18;6.53;;;4.05;;
62990;SDS011;49084;48.204;16.202;2024-03-23T06:50:44;11.38;;;5.40;;
62990;SDS011;49084;48.204;16.202;2024-03-23T06:53:11;10.60;;;5.03;;
62990;SDS011;49084;48.204;16.202;2024-03-23T06:55:37;9.50;;;4.80;;
62990;SDS011;49084;48.204;16.202;2024-03-23T06:58:03;10.77;;;4.20;;
62990;SDS011;49084;48.204;16.202;2024-03-23T07:00:29;7.65;;;4.90;;
62990;SDS011;49084;48.204;16.202;2024-03-23T07:02:55;14.73;;;5.30;;
62990;SDS011;49084;48.204;16.202;2024-03-23T07:05:20;6.88;;;4.50;;
62990;SDS011;49084;48.204;16.202;2024-03-23T07:07:46;8.65;;;4.93;;
62990;SDS011;49084;48.204;16.202;2024-03-23T07:10:12;11.20;;;4.93;;
62990;SDS011;49084;48.204;16.202;2024-03-23T07:12:38;5.57;;;4.90;;
62990;SDS011;49084;48.204;16.202;2024-03-23T07:15:04;6.15;;;4.60;;
62990;SDS011;49084;48.204;16.202;2024-03-23T07:17:30;7.88;;;4.72;;
62990;SDS011;49084;48.204;16.202;2024-03-23T07:19:57;9.68;;;5.20;;
62990;SDS011;49084;48.204;16.202;2024-03-23T07:22:23;7.60;;;4.55;;
62990;SDS011;49084;48.204;16.202;2024-03-23T07:24:49;8.98;;;4.43;;
62990;SDS011;49084;48.204;16.202;2024-03-23T07:27:14;7.05;;;4.57;;
62990;SDS011;49084;48.204;16.202;2024-03-23T07:29:40;8.98;;;4.43;;
62990;SDS011;49084;48.204;16.202;2024-03-23T07:32:06;7.00;;;4.70;;
62990;SDS011;49084;48.204;16.202;2024-03-23T07:34:31;5.40;;;4.35;;
62990;SDS011;49084;48.204;16.202;2024-03-23T07:36:57;11.93;;;5.30;;
62990;SDS011;49084;48.204;16.202;2024-03-23T07:39:22;12.70;;;5.30;;
62990;SDS011;49084;48.204;16.202;2024-03-23T07:41:48;7.60;;;4.78;;
62990;SDS011;49084;48.204;16.202;2024-03-23T07:44:13;7.22;;;5.05;;
62990;SDS011;49084;48.204;16.202;2024-03-23T07:46:39;6.93;;;4.13;;
62990;SDS011;49084;48.204;16.202;2024-03-23T07:49:05;10.55;;;4.45;;
62990;SDS011;49084;48.204;16.202;2024-03-23T07:51:30;5.30;;;4.20;;
62990;SDS011;49084;48.204;16.202;2024-03-23T07:53:56;5.25;;;3.72;;
62990;SDS011;49084;48.204;16.202;2024-03-23T07:56:22;4.70;;;3.60;;
62990;SDS011;49084;48.204;16.202;2024-03-23T07:58:48;8.20;;;4.20;;
62990;SDS011;49084;48.204;16.202;2024-03-23T08:01:15;5.03;;;3.63;;
62990;SDS011;49084;48.204;16.202;2024-03-23T08:03:42;9.48;;;4.75;;
62990;SDS011;49084;48.204;16.202;2024-03-23T08:06:10;8.52;;;4.95;;
62990;SDS011;49084;48.204;16.202;2024-03-23T08:08:36;5.50;;;4.40;;
62990;SDS011;49084;48.204;16.202;2024-03-23T08:11:02;7.60;;;4.30;;
62990;SDS011;49084;48.204;16.202;2024-03-23T08:13:28;5.55;;;3.17;;
62990;SDS011;49084;48.204;16.202;2024-03-23T08:16:00;4.28;;;2.72;;
62990;SDS011;49084;48.204;16.202;2024-03-23T08:18:27;7.13;;;3.00;;
62990;SDS011;49084;48.204;16.202;2024-03-23T08:20:57;3.65;;;3.20;;
62990;SDS011;49084;48.204;16.202;2024-03-23T08:23:27;4.70;;;2.38;;
62990;SDS011;49084;48.204;16.202;2024-03-23T08:26:00;2.20;;;2.00;;
62990;SDS011;49084;48.204;16.202;2024-03-23T08:28:27;3.15;;;2.10;;
62990;SDS011;49084;48.204;16.202;2024-03-23T08:30:53;4.53;;;1.83;;
62990;SDS011;49084;48.204;16.202;2024-03-23T08:33:20;3.25;;;1.90;;
62990;SDS011;49084;48.204;16.202;2024-03-23T08:36:19;3.75;;;2.05;;
62990;SDS011;49084;48.204;16.202;2024-03-23T08:38:39;3.72;;;1.90;;
62990;SDS011;49084;48.204;16.202;2024-03-23T08:41:05;2.88;;;1.95;;
62990;SDS011;49084;48.204;16.202;2024-03-23T08:43:41;2.53;;;1.60;;
62990;SDS011;49084;48.204;16.202;2024-03-23T08:46:14;4.20;;;1.90;;
62990;SDS011;49084;48.204;16.202;2024-03-23T08:48:41;4.63;;;2.42;;
62990;SDS011;49084;48.204;16.202;2024-03-23T08:51:09;5.50;;;2.30;;
62990;SDS011;49084;48.204;16.202;2024-03-23T08:53:35;2.33;;;1.73;;
62990;SDS011;49084;48.204;16.202;2024-03-23T08:56:01;3.58;;;1.90;;
62990;SDS011;49084;48.204;16.202;2024-03-23T08:58:28;4.60;;;1.38;;
62990;SDS011;49084;48.204;16.202;2024-03-23T09:00:55;1.15;;;0.80;;
62990;SDS011;49084;48.204;16.202;2024-03-23T09:03:24;2.58;;;1.15;;
62990;SDS011;49084;48.204;16.202;2024-03-23T09:05:51;2.28;;;1.08;;
62990;SDS011;49084;48.204;16.202;2024-03-23T09:08:17;4.95;;;1.05;;
62990;SDS011;49084;48.204;16.202;2024-03-23T09:10:43;1.05;;;0.80;;
62990;SDS011;49084;48.204;16.202;2024-03-23T09:13:09;3.15;;;0.60;;
62990;SDS011;49084;48.204;16.202;2024-03-23T09:15:36;1.65;;;0.40;;
62990;SDS011;49084;48.204;16.202;2024-03-23T09:18:03;1.85;;;0.40;;
62990;SDS011;49084;48.204;16.202;2024-03-23T09:20:32;0.95;;;0.40;;
62990;SDS011;49084;48.204;16.202;2024-03-23T09:22:58;1.00;;;0.50;;
62990;SDS011;49084;48.204;16.202;2024-03-23T09:25:24;1.75;;;0.50;;
62990;SDS011;49084;48.204;16.202;2024-03-23T09:27:50;2.05;;;0.70;;
62990;SDS011;49084;48.204;16.202;2024-03-23T09:30:16;0.73;;;0.73;;
62990;SDS011;49084;48.204;16.202;2024-03-23T09:32:42;1.83;;;0.22;;
62990;SDS011;49084;48.204;16.202;2024-03-23T09:35:09;0.65;;;0.30;;
62990;SDS011;49084;48.204;16.202;2024-03-23T09:37:35;1.63;;;0.40;;
62990;SDS011;49084;48.204;16.202;2024-03-23T09:40:01;2.63;;;0.75;;
62990;SDS011;49084;48.204;16.202;2024-03-23T09:42:27;3.05;;;1.08;;
62990;SDS011;49084;48.204;16.202;2024-03-23T09:44:53;0.70;;;0.60;;
62990;SDS011;49084;48.204;16.202;2024-03-23T09:47:22;1.17;;;0.60;;
62990;SDS011;49084;48.204;16.202;2024-03-23T09:49:50;1.42;;;0.70;;
62990;SDS011;49084;48.204;16.202;2024-03-23T09:52:16;1.00;;;0.50;;
62990;SDS011;49084;48.204;16.202;2024-03-23T09:54:42;1.38;;;0.68;;
62990;SDS011;49084;48.204;16.202;2024-03-23T09:57:07;1.85;;;0.43;;
62990;SDS011;49084;48.204;16.202;2024-03-23T09:59:33;2.70;;;0.82;;
62990;SDS011;49084;48.204;16.202;2024-03-23T10:01:59;2.08;;;0.50;;
62990;SDS011;49084;48.204;16.202;2024-03-23T10:04:39;0.75;;;0.50;;
62990;SDS011;49084;48.204;16.202;2024-03-23T10:07:12;0.50;;;0.50;;
62990;SDS011;49084;48.204;16.202;2024-03-23T10:09:38;0.80;;;0.60;;
62990;SDS011;49084;48.204;16.202;2024-03-23T10:12:08;3.78;;;0.77;;
62990;SDS011;49084;48.204;16.202;2024-03-23T10:14:39;1.63;;;0.60;;
62990;SDS011;49084;48.204;16.202;2024-03-23T10:19:40;1.10;;;0.60;;
62990;SDS011;49084;48.204;16.202;2024-03-23T10:22:08;3.22;;;0.80;;
62990;SDS011;49084;48.204;16.202;2024-03-23T10:24:34;1.85;;;0.40;;
62990;SDS011;49084;48.204;16.202;2024-03-23T10:27:00;2.40;;;0.45;;
62990;SDS011;49084;48.204;16.202;2024-03-23T10:29:26;2.08;;;0.50;;
62990;SDS011;49084;48.204;16.202;2024-03-23T10:31:55;2.58;;;0.43;;
62990;SDS011;49084;48.204;16.202;2024-03-23T10:34:33;2.35;;;0.68;;
62990;SDS011;49084;48.204;16.202;2024-03-23T10:36:59;1.40;;;0.70;;
62990;SDS011;49084;48.204;16.202;2024-03-23T10:39:30;1.75;;;0.52;;
62990;SDS011;49084;48.204;16.202;2024-03-23T10:42:04;1.45;;;0.52;;
62990;SDS011;49084;48.204;16.202;2024-03-23T10:44:30;0.65;;;0.55;;
62990;SDS011;49084;48.204;16.202;2024-03-23T10:46:57;1.15;;;0.73;;
62990;SDS011;49084;48.204;16.202;2024-03-23T10:49:27;1.83;;;0.60;;
62990;SDS011;49084;48.204;16.202;2024-03-23T10:51:57;1.52;;;0.50;;
62990;SDS011;49084;48.204;16.202;2024-03-23T10:54:27;3.05;;;1.02;;
62990;SDS011;49084;48.204;16.202;2024-03-23T10:59:31;2.13;;;0.68;;
62990;SDS011;49084;48.204;16.202;2024-03-23T11:01:59;1.65;;;0.70;;
62990;SDS011;49084;48.204;16.202;2024-03-23T11:04:34;1.55;;;0.75;;
62990;SDS011;49084;48.204;16.202;2024-03-23T11:07:03;2.00;;;0.63;;
62990;SDS011;49084;48.204;16.202;2024-03-23T11:09:48;1.67;;;0.70;;
62990;SDS011;49084;48.204;16.202;2024-03-23T11:14:54;4.18;;;0.73;;
62990;SDS011;49084;48.204;16.202;2024-03-23T11:17:24;4.60;;;0.80;;
62990;SDS011;49084;48.204;16.202;2024-03-23T11:19:57;2.58;;;1.10;;
62990;SDS011;49084;48.204;16.202;2024-03-23T11:22:43;2.35;;;0.70;;
62990;SDS011;49084;48.204;16.202;2024-03-23T11:27:41;1.75;;;0.85;;
62990;SDS011;49084;48.204;16.202;2024-03-23T11:30:13;1.88;;;0.88;;
62990;SDS011;49084;48.204;16.202;2024-03-23T11:32:39;2.97;;;0.90;;
62990;SDS011;49084;48.204;16.202;2024-03-23T11:35:05;3.45;;;1.00;;
62990;SDS011;49084;48.204;16.202;2024-03-23T11:37:31;2.20;;;1.00;;
62990;SDS011;49084;48.204;16.202;2024-03-23T11:39:57;4.47;;;0.82;;
62990;SDS011;49084;48.204;16.202;2024-03-23T11:42:22;5.80;;;0.90;;
62990;SDS011;49084;48.204;16.202;2024-03-23T11:44:48;4.78;;;0.85;;
62990;SDS011;49084;48.204;16.202;2024-03-23T11:47:14;0.95;;;0.70;;
62990;SDS011;49084;48.204;16.202;2024-03-23T11:49:39;2.30;;;0.95;;
62990;SDS011;49084;48.204;16.202;2024-03-23T11:52:08;1.92;;;0.80;;
62990;SDS011;49084;48.204;16.202;2024-03-23T11:54:33;1.30;;;0.82;;
62990;SDS011;49084;48.204;16.202;2024-03-23T11:57:03;4.00;;;1.00;;
62990;SDS011;49084;48.204;16.202;2024-03-23T12:02:12;3.20;;;0.60;;
62990;SDS011;49084;48.204;16.202;2024-03-23T12:04:41;1.30;;;0.82;;
62990;SDS011;49084;48.204;16.202;2024-03-23T12:09:40;6.05;;;1.25;;
62990;SDS011;49084;48.204;16.202;2024-03-23T12:12:18;1.70;;;0.90;;
62990;SDS011;49084;48.204;16.202;2024-03-23T12:14:44;5.37;;;1.07;;
62990;SDS011;49084;48.204;16.202;2024-03-23T12:17:14;2.00;;;1.10;;
62990;SDS011;49084;48.204;16.202;2024-03-23T12:19:40;1.45;;;0.80;;
62990;SDS011;49084;48.204;16.202;2024-03-23T12:22:07;1.63;;;1.00;;
62990;SDS011;49084;48.204;16.202;2024-03-23T12:24:34;2.85;;;1.00;;
62990;SDS011;49084;48.204;16.202;2024-03-23T12:27:02;1.88;;;0.93;;
62990;SDS011;49084;48.204;16.202;2024-03-23T12:29:30;1.25;;;0.75;;
62990;SDS011;49084;48.204;16.202;2024-03-23T12:31:58;2.63;;;1.05;;
62990;SDS011;49084;48.204;16.202;2024-03-23T12:36:51;2.00;;;0.77;;
62990;SDS011;49084;48.204;16.202;2024-03-23T12:39:17;2.35;;;1.13;;
62990;SDS011;49084;48.204;16.202;2024-03-23T12:41:43;2.03;;;0.98;;
62990;SDS011;49084;48.204;16.202;2024-03-23T12:44:09;8.18;;;1.55;;
62990;SDS011;49084;48.204;16.202;2024-03-23T12:46:36;8.82;;;1.35;;
62990;SDS011;49084;48.204;16.202;2024-03-23T12:49:03;4.20;;;1.55;;
62990;SDS011;49084;48.204;16.202;2024-03-23T12:51:28;4.07;;;1.15;;
62990;SDS011;49084;48.204;16.202;2024-03-23T12:53:54;3.83;;;1.02;;
62990;SDS011;49084;48.204;16.202;2024-03-23T12:56:20;2.97;;;1.30;;
62990;SDS011;49084;48.204;16.202;2024-03-23T12:58:45;3.67;;;1.05;;
62990;SDS011;49084;48.204;16.202;2024-03-23T13:01:16;1.65;;;0.60;;
62990;SDS011;49084;48.204;16.202;2024-03-23T13:03:46;1.10;;;0.30;;
62990;SDS011;49084;48.204;16.202;2024-03-23T13:06:12;3.88;;;0.43;;
62990;SDS011;49084;48.204;16.202;2024-03-23T13:08:38;2.65;;;0.40;;
62990;SDS011;49084;48.204;16.202;2024-03-23T13:11:05;1.88;;;0.40;;
62990;SDS011;49084;48.204;16.202;2024-03-23T13:13:34;1.23;;;0.40;;
62990;SDS011;49084;48.204;16.202;2024-03-23T13:15:59;2.80;;;0.30;;
62990;SDS011;49084;48.204;16.202;2024-03-23T13:18:25;2.42;;;0.32;;
62990;SDS011;49084;48.204;16.202;2024-03-23T13:20:51;0.65;;;0.30;;
62990;SDS011;49084;48.204;16.202;2024-03-23T13:23:17;0.43;;;0.30;;
62990;SDS011;49084;48.204;16.202;2024-03-23T13:25:49;0.98;;;0.40;;
62990;SDS011;49084;48.204;16.202;2024-03-23T13:28:15;1.25;;;0.30;;
62990;SDS011;49084;48.204;16.202;2024-03-23T13:30:49;1.38;;;0.28;;
62990;SDS011;49084;48.204;16.202;2024-03-23T13:33:16;1.20;;;0.60;;
62990;SDS011;49084;48.204;16.202;2024-03-23T13:35:48;0.80;;;0.57;;
62990;SDS011;49084;48.204;16.202;2024-03-23T13:38:15;0.43;;;0.43;;
62990;SDS011;49084;48.204;16.202;2024-03-23T13:40:48;0.60;;;0.50;;
62990;SDS011;49084;48.204;16.202;2024-03-23T13:43:17;3.38;;;0.40;;
62990;SDS011;49084;48.204;16.202;2024-03-23T13:45:42;1.48;;;0.60;;
62990;SDS011;49084;48.204;16.202;2024-03-23T13:48:08;0.70;;;0.70;;
62990;SDS011;49084;48.204;16.202;2024-03-23T13:50:34;2.60;;;0.60;;
62990;SDS011;49084;48.204;16.202;2024-03-23T13:52:59;1.45;;;0.60;;
62990;SDS011;49084;48.204;16.202;2024-03-23T13:55:25;1.30;;;0.50;;
62990;SDS011;49084;48.204;16.202;2024-03-23T13:57:50;1.88;;;0.57;;
62990;SDS011;49084;48.204;16.202;2024-03-23T14:00:16;0.60;;;0.60;;
62990;SDS011;49084;48.204;16.202;2024-03-23T14:02:48;2.75;;;0.60;;
62990;SDS011;49084;48.204;16.202;2024-03-23T14:05:14;1.95;;;0.55;;
62990;SDS011;49084;48.204;16.202;2024-03-23T14:07:39;1.30;;;0.50;;
62990;SDS011;49084;48.204;16.202;2024-03-23T14:10:05;4.00;;;0.73;;
62990;SDS011;49084;48.204;16.202;2024-03-23T14:12:32;1.70;;;0.50;;
62990;SDS011;49084;48.204;16.202;2024-03-23T14:14:57;0.32;;;0.28;;
62990;SDS011;49084;48.204;16.202;2024-03-23T14:17:23;0.73;;;0.60;;
62990;SDS011;49084;48.204;16.202;2024-03-23T14:19:51;2.85;;;0.60;;
62990;SDS011;49084;48.204;16.202;2024-03-23T14:22:17;1.90;;;0.70;;
62990;SDS011;49084;48.204;16.202;2024-03-23T14:24:47;1.60;;;0.60;;
62990;SDS011;49084;48.204;16.202;2024-03-23T14:27:13;1.77;;;1.00;;
62990;SDS011;49084;48.204;16.202;2024-03-23T14:29:39;1.42;;;0.77;;
62990;SDS011;49084;48.204;16.202;2024-03-23T14:32:04;2.15;;;0.93;;
62990;SDS011;49084;48.204;16.202;2024-03-23T14:34:30;2.35;;;1.00;;
62990;SDS011;49084;48.204;16.202;2024-03-23T14:36:56;1.33;;;0.80;;
62990;SDS011;49084;48.204;16.202;2024-03-23T14:39:24;2.75;;;1.23;;
62990;SDS011;49084;48.204;16.202;2024-03-23T14:41:50;1.10;;;1.05;;
62990;SDS011;49084;48.204;16.202;2024-03-23T14:44:16;0.70;;;0.70;;
62990;SDS011;49084;48.204;16.202;2024-03-23T14:46:41;1.60;;;0.75;;
62990;SDS011;49084;48.204;16.202;2024-03-23T14:49:08;2.63;;;0.80;;
62990;SDS011;49084;48.204;16.202;2024-03-23T14:51:33;0.68;;;0.57;;
62990;SDS011;49084;48.204;16.202;2024-03-23T14:53:59;1.63;;;0.90;;
62990;SDS011;49084;48.204;16.202;2024-03-23T14:56:25;1.10;;;0.60;;
62990;SDS011;49084;48.204;16.202;2024-03-23T14:58:53;0.93;;;0.40;;
62990;SDS011;49084;48.204;16.202;2024-03-23T15:01:20;1.13;;;0.68;;
62990;SDS011;49084;48.204;16.202;2024-03-23T15:03:46;1.95;;;0.70;;
62990;SDS011;49084;48.204;16.202;2024-03-23T15:06:12;0.47;;;0.47;;
62990;SDS011;49084;48.204;16.202;2024-03-23T15:08:38;2.25;;;0.90;;
62990;SDS011;49084;48.204;16.202;2024-03-23T15:11:05;1.75;;;0.90;;
62990;SDS011;49084;48.204;16.202;2024-03-23T15:13:34;1.35;;;0.60;;
62990;SDS011;49084;48.204;16.202;2024-03-23T15:18:26;1.35;;;0.77;;
62990;SDS011;49084;48.204;16.202;2024-03-23T15:20:54;2.92;;;0.95;;
62990;SDS011;49084;48.204;16.202;2024-03-23T15:23:20;0.80;;;0.73;;
62990;SDS011;49084;48.204;16.202;2024-03-23T15:25:53;1.75;;;0.90;;
62990;SDS011;49084;48.204;16.202;2024-03-23T15:28:22;2.42;;;0.80;;
62990;SDS011;49084;48.204;16.202;2024-03-23T15:30:48;1.00;;;0.90;;
62990;SDS011;49084;48.204;16.202;2024-03-23T15:33:14;4.10;;;0.90;;
62990;SDS011;49084;48.204;16.202;2024-03-23T15:35:40;1.33;;;0.57;;
62990;SDS011;49084;48.204;16.202;2024-03-23T15:38:05;1.10;;;0.30;;
62990;SDS011;49084;48.204;16.202;2024-03-23T15:40:31;1.40;;;0.60;;
62990;SDS011;49084;48.204;16.202;2024-03-23T15:42:56;1.55;;;0.43;;
62990;SDS011;49084;48.204;16.202;2024-03-23T15:45:22;0.95;;;0.40;;